| time (UTC) | temp F | wind direction | speed MPH | gust MPH | rain 1hr in | rain 24hr in | rain mn in | humidity % | barometer mb |
| 20260509201003 | 56 | 44 | 0.0 | 4.0 | 0.03 | 0.35 | 0.33 | 95 | 1007.5 |
| 20260509200003 | 55 | 0 | 0.0 | 0.0 | 0.03 | 0.35 | 0.33 | 95 | 1007.4 |
| 20260509195003 | 55 | 46 | 0.0 | 4.0 | 0.05 | 0.35 | 0.33 | 95 | 1007.3 |
| 20260509194003 | 55 | 19 | 0.0 | 3.0 | 0.04 | 0.34 | 0.32 | 96 | 1007.4 |
| 20260509193003 | 54 | 5 | 0.0 | 1.0 | 0.06 | 0.34 | 0.32 | 95 | 1007.6 |
| 20260509192003 | 54 | 0 | 0.0 | 0.0 | 0.06 | 0.33 | 0.31 | 96 | 1007.6 |
| 20260509191003 | 54 | 0 | 0.0 | 0.0 | 0.06 | 0.32 | 0.30 | 95 | 1007.9 |
| 20260509190003 | 54 | 0 | 0.0 | 0.0 | 0.07 | 0.33 | 0.30 | 95 | 1008.2 |
| 20260509185213 | 54 | 0 | 0.0 | 0.0 | 0.06 | 0.31 | 0.29 | 95 | 1008.3 |
| 20260509184003 | 54 | 355 | 0.0 | 2.0 | 0.06 | 0.31 | 0.28 | 95 | 1008.3 |
| 20260509183003 | 54 | 3 | 1.0 | 5.0 | 0.06 | 0.29 | 0.26 | 95 | 1008.4 |
| 20260509182003 | 54 | 18 | 0.0 | 2.0 | 0.07 | 0.28 | 0.25 | 95 | 1008.3 |
| 20260509181003 | 54 | 0 | 0.0 | 0.0 | 0.08 | 0.27 | 0.24 | 95 | 1008.2 |
| 20260509180212 | 54 | 11 | 0.0 | 2.0 | 0.08 | 0.26 | 0.23 | 95 | 1008.3 |
| 20260509175003 | 55 | 0 | 0.0 | 0.0 | 0.09 | 0.25 | 0.22 | 96 | 1008.3 |
| 20260509174212 | 54 | 40 | 0.0 | 1.0 | 0.09 | 0.25 | 0.22 | 96 | 1008.2 |
| 20260509173003 | 54 | 40 | 0.0 | 2.0 | 0.08 | 0.23 | 0.20 | 95 | 1008.1 |
| 20260509172214 | 54 | 40 | 0.0 | 3.0 | 0.07 | 0.21 | 0.18 | 95 | 1008.3 |
| 20260509171003 | 54 | 42 | 0.0 | 2.0 | 0.06 | 0.19 | 0.16 | 95 | 1008.2 |
| 20260509170003 | 54 | 45 | 0.0 | 2.0 | 0.04 | 0.17 | 0.14 | 94 | 1008.3 |
| 20260509165003 | 54 | 45 | 0.0 | 3.0 | 0.04 | 0.16 | 0.13 | 95 | 1008.3 |
| 20260509164003 | 55 | 0 | 0.0 | 0.0 | 0.03 | 0.15 | 0.12 | 95 | 1008.3 |
| 20260509163214 | 55 | 0 | 0.0 | 0.0 | 0.03 | 0.15 | 0.12 | 95 | 1008.3 |
| 20260509162214 | 55 | 5 | 0.0 | 3.0 | 0.03 | 0.14 | 0.11 | 95 | 1008.4 |
| 20260509161003 | 54 | 5 | 1.0 | 3.0 | 0.02 | 0.13 | 0.10 | 95 | 1008.4 |
| 20260509160003 | 54 | 7 | 1.0 | 4.0 | 0.02 | 0.13 | 0.10 | 95 | 1008.5 |
| 20260509155003 | 54 | 14 | 0.0 | 3.0 | 0.02 | 0.12 | 0.09 | 94 | 1008.4 |
| 20260509154003 | 54 | 30 | 0.0 | 4.0 | 0.02 | 0.12 | 0.09 | 95 | 1008.4 |
| 20260509153213 | 54 | 0 | 0.0 | 0.0 | 0.02 | 0.12 | 0.09 | 95 | 1008.5 |
| 20260509152003 | 54 | 0 | 0.0 | 0.0 | 0.01 | 0.11 | 0.08 | 96 | 1008.6 |
| 20260509151213 | 54 | 0 | 0.0 | 0.0 | 0.02 | 0.11 | 0.08 | 96 | 1008.6 |
| 20260509150003 | 53 | 0 | 0.0 | 0.0 | 0.02 | 0.11 | 0.08 | 96 | 1008.6 |
| 20260509145003 | 53 | 0 | 0.0 | 0.0 | 0.01 | 0.10 | 0.07 | 96 | 1008.6 |
| 20260509144003 | 53 | 0 | 0.0 | 0.0 | 0.01 | 0.10 | 0.07 | 96 | 1008.4 |
| 20260509143003 | 53 | 0 | 0.0 | 0.0 | 0.02 | 0.10 | 0.07 | 96 | 1008.5 |
| 20260509142213 | 53 | 0 | 0.0 | 0.0 | 0.02 | 0.10 | 0.07 | 96 | 1008.6 |
| 20260509141003 | 53 | 0 | 0.0 | 0.0 | 0.01 | 0.09 | 0.06 | 97 | 1008.8 |
| 20260509140004 | 53 | 0 | 0.0 | 0.0 | 0.02 | 0.09 | 0.06 | 97 | 1008.7 |
| 20260509135003 | 52 | 296 | 0.0 | 1.0 | 0.02 | 0.09 | 0.06 | 97 | 1008.7 |
| 20260509134213 | 52 | 0 | 0.0 | 0.0 | 0.02 | 0.09 | 0.06 | 97 | 1008.8 |
| 20260509133004 | 52 | 296 | 0.0 | 1.0 | 0.01 | 0.08 | 0.05 | 97 | 1008.7 |
| 20260509132003 | 51 | 0 | 0.0 | 0.0 | 0.01 | 0.08 | 0.05 | 97 | 1008.6 |
| 20260509131213 | 51 | 0 | 0.0 | 0.0 | 0.01 | 0.08 | 0.05 | 97 | 1008.5 |
| 20260509130003 | 51 | 0 | 0.0 | 0.0 | 0.00 | 0.07 | 0.04 | 96 | 1008.4 |
| 20260509125003 | 51 | 0 | 0.0 | 0.0 | 0.00 | 0.07 | 0.04 | 97 | 1008.4 |
| 20260509124212 | 51 | 0 | 0.0 | 0.0 | 0.00 | 0.07 | 0.04 | 97 | 1008.3 |
| 20260509123003 | 50 | 0 | 0.0 | 0.0 | 0.01 | 0.07 | 0.04 | 97 | 1008.3 |
| 20260509122003 | 50 | 0 | 0.0 | 0.0 | 0.01 | 0.07 | 0.04 | 97 | 1008.2 |
| 20260509121003 | 50 | 0 | 0.0 | 0.0 | 0.01 | 0.07 | 0.04 | 97 | 1008.3 |
| 20260509120003 | 50 | 0 | 0.0 | 0.0 | 0.01 | 0.07 | 0.04 | 97 | 1008.4 |
| 20260509115003 | 50 | 0 | 0.0 | 0.0 | 0.01 | 0.07 | 0.04 | 97 | 1008.5 |
| 20260509114003 | 49 | 0 | 0.0 | 0.0 | 0.02 | 0.07 | 0.04 | 97 | 1008.7 |
| 20260509113003 | 49 | 0 | 0.0 | 0.0 | 0.01 | 0.06 | 0.03 | 97 | 1008.6 |
| 20260509112214 | 49 | 0 | 0.0 | 0.0 | 0.01 | 0.06 | 0.03 | 97 | 1008.7 |
| 20260509111003 | 48 | 0 | 0.0 | 0.0 | 0.01 | 0.06 | 0.03 | 96 | 1008.6 |
| 20260509110003 | 48 | 0 | 0.0 | 0.0 | 0.01 | 0.07 | 0.03 | 96 | 1008.7 |
| 20260509105003 | 48 | 0 | 0.0 | 0.0 | 0.01 | 0.07 | 0.03 | 96 | 1008.8 |
| 20260509104214 | 48 | 0 | 0.0 | 0.0 | 0.00 | 0.06 | 0.02 | 96 | 1008.8 |
| 20260509103003 | 48 | 0 | 0.0 | 0.0 | 0.00 | 0.06 | 0.02 | 96 | 1008.8 |
| 20260509102003 | 48 | 0 | 0.0 | 0.0 | 0.00 | 0.06 | 0.02 | 96 | 1008.8 |
| 20260509101003 | 48 | 0 | 0.0 | 0.0 | 0.00 | 0.06 | 0.02 | 96 | 1008.7 |
| 20260509100004 | 48 | 0 | 0.0 | 0.0 | 0.00 | 0.06 | 0.02 | 96 | 1008.6 |
| 20260509095003 | 48 | 0 | 0.0 | 0.0 | 0.00 | 0.06 | 0.02 | 96 | 1008.6 |
| 20260509094003 | 48 | 0 | 0.0 | 0.0 | 0.00 | 0.06 | 0.02 | 96 | 1008.6 |
| 20260509093003 | 48 | 0 | 0.0 | 0.0 | 0.00 | 0.06 | 0.02 | 96 | 1008.6 |
| 20260509092213 | 48 | 0 | 0.0 | 0.0 | 0.00 | 0.06 | 0.02 | 96 | 1008.6 |
| 20260509091003 | 48 | 0 | 0.0 | 0.0 | 0.00 | 0.06 | 0.02 | 96 | 1008.7 |
| 20260509090213 | 48 | 0 | 0.0 | 0.0 | 0.00 | 0.06 | 0.02 | 96 | 1008.8 |
| 20260509085003 | 48 | 0 | 0.0 | 0.0 | 0.00 | 0.06 | 0.02 | 96 | 1009.0 |
| 20260509084213 | 48 | 0 | 0.0 | 0.0 | 0.00 | 0.06 | 0.02 | 96 | 1009.1 |
| 20260509083003 | 48 | 0 | 0.0 | 0.0 | 0.00 | 0.06 | 0.02 | 96 | 1009.3 |
| 20260509082003 | 48 | 0 | 0.0 | 0.0 | 0.00 | 0.06 | 0.02 | 96 | 1009.5 |
| 20260509081213 | 48 | 0 | 0.0 | 0.0 | 0.00 | 0.06 | 0.02 | 96 | 1009.5 |
| 20260509080003 | 48 | 0 | 0.0 | 0.0 | 0.00 | 0.06 | 0.02 | 96 | 1009.7 |
| 20260509075003 | 48 | 0 | 0.0 | 0.0 | 0.00 | 0.06 | 0.02 | 96 | 1009.5 |
| 20260509074003 | 48 | 0 | 0.0 | 0.0 | 0.00 | 0.06 | 0.02 | 96 | 1009.5 |
| 20260509073003 | 48 | 0 | 0.0 | 0.0 | 0.00 | 0.06 | 0.02 | 96 | 1009.5 |
| 20260509072003 | 48 | 0 | 0.0 | 0.0 | 0.00 | 0.06 | 0.02 | 96 | 1009.5 |
| 20260509071003 | 48 | 0 | 0.0 | 0.0 | 0.00 | 0.06 | 0.02 | 96 | 1009.6 |
| 20260509070003 | 48 | 0 | 0.0 | 0.0 | 0.00 | 0.06 | 0.02 | 96 | 1009.5 |
| 20260509065003 | 48 | 0 | 0.0 | 0.0 | 0.01 | 0.06 | 0.02 | 96 | 1009.4 |
| 20260509064003 | 48 | 0 | 0.0 | 0.0 | 0.01 | 0.06 | 0.02 | 96 | 1009.5 |
| 20260509063214 | 49 | 0 | 0.0 | 0.0 | 0.02 | 0.06 | 0.02 | 96 | 1009.7 |
| 20260509062003 | 48 | 0 | 0.0 | 0.0 | 0.02 | 0.06 | 0.02 | 96 | 1009.8 |
| 20260509061003 | 48 | 0 | 0.0 | 0.0 | 0.02 | 0.06 | 0.02 | 96 | 1010.0 |
| 20260509060004 | 48 | 0 | 0.0 | 0.0 | 0.02 | 0.06 | 0.02 | 96 | 1010.2 |
| 20260509055003 | 48 | 0 | 0.0 | 0.0 | 0.01 | 0.05 | 0.01 | 96 | 1010.6 |
| 20260509054003 | 48 | 0 | 0.0 | 0.0 | 0.01 | 0.05 | 0.01 | 96 | 1010.7 |
| 20260509053003 | 48 | 0 | 0.0 | 0.0 | 0.00 | 0.04 | 0.00 | 96 | 1010.5 |
| 20260509052003 | 48 | 0 | 0.0 | 0.0 | 0.00 | 0.04 | 0.00 | 96 | 1010.3 |
| 20260509051003 | 48 | 0 | 0.0 | 0.0 | 0.00 | 0.04 | 0.00 | 95 | 1009.9 |
| 20260509050213 | 48 | 0 | 0.0 | 0.0 | 0.00 | 0.04 | 0.00 | 95 | 1009.8 |
| 20260509045003 | 48 | 0 | 0.0 | 0.0 | 0.00 | 0.05 | 0.00 | 95 | 1009.8 |
| 20260509044003 | 48 | 0 | 0.0 | 0.0 | 0.00 | 0.05 | 0.00 | 96 | 1009.7 |
| 20260509043003 | 48 | 0 | 0.0 | 0.0 | 0.00 | 0.05 | 0.00 | 95 | 1009.6 |
| 20260509042003 | 48 | 0 | 0.0 | 0.0 | 0.00 | 0.05 | 0.00 | 95 | 1009.9 |
| 20260509041003 | 48 | 0 | 0.0 | 0.0 | 0.00 | 0.06 | 0.00 | 95 | 1010.0 |
| 20260509040004 | 48 | 0 | 0.0 | 0.0 | 0.00 | 0.07 | 0.00 | 95 | 1010.1 |
| 20260509035003 | 48 | 0 | 0.0 | 0.0 | 0.00 | 0.07 | 0.07 | 95 | 1010.1 |
| 20260509034003 | 48 | 0 | 0.0 | 0.0 | 0.00 | 0.07 | 0.07 | 95 | 1010.0 |
| 20260509033003 | 48 | 0 | 0.0 | 0.0 | 0.00 | 0.07 | 0.07 | 95 | 1009.9 |
| 20260509032003 | 48 | 0 | 0.0 | 0.0 | 0.00 | 0.08 | 0.07 | 95 | 1010.0 |
| 20260509031003 | 48 | 0 | 0.0 | 0.0 | 0.00 | 0.09 | 0.07 | 95 | 1010.2 |
| 20260509030003 | 48 | 0 | 0.0 | 0.0 | 0.00 | 0.09 | 0.07 | 95 | 1010.4 |
| 20260509025213 | 48 | 0 | 0.0 | 0.0 | 0.00 | 0.09 | 0.07 | 95 | 1010.5 |
| 20260509024003 | 48 | 0 | 0.0 | 0.0 | 0.00 | 0.09 | 0.07 | 94 | 1010.3 |
| 20260509023003 | 48 | 0 | 0.0 | 0.0 | 0.00 | 0.09 | 0.07 | 94 | 1010.2 |
| 20260509022003 | 48 | 0 | 0.0 | 0.0 | 0.00 | 0.09 | 0.07 | 93 | 1010.1 |
| 20260509021003 | 49 | 0 | 0.0 | 0.0 | 0.00 | 0.09 | 0.07 | 93 | 1010.2 |
| 20260509020003 | 49 | 0 | 0.0 | 0.0 | 0.00 | 0.09 | 0.07 | 93 | 1010.2 |
| 20260509015003 | 50 | 0 | 0.0 | 0.0 | 0.00 | 0.09 | 0.07 | 93 | 1010.2 |
| 20260509014214 | 50 | 0 | 0.0 | 0.0 | 0.00 | 0.09 | 0.07 | 93 | 1010.1 |
| 20260509013003 | 51 | 0 | 0.0 | 0.0 | 0.00 | 0.09 | 0.07 | 94 | 1009.9 |
| 20260509012003 | 51 | 0 | 0.0 | 0.0 | 0.00 | 0.09 | 0.07 | 94 | 1009.9 |
| 20260509011003 | 51 | 0 | 0.0 | 0.0 | 0.00 | 0.09 | 0.07 | 94 | 1009.9 |
| 20260509010003 | 51 | 0 | 0.0 | 0.0 | 0.00 | 0.09 | 0.07 | 93 | 1009.9 |
| 20260509005003 | 51 | 0 | 0.0 | 0.0 | 0.00 | 0.09 | 0.07 | 93 | 1009.6 |
| 20260509004003 | 51 | 0 | 0.0 | 0.0 | 0.00 | 0.09 | 0.07 | 93 | 1009.5 |
| 20260509003003 | 52 | 0 | 0.0 | 0.0 | 0.00 | 0.09 | 0.07 | 93 | 1009.5 |
| 20260509002003 | 52 | 0 | 0.0 | 0.0 | 0.01 | 0.09 | 0.07 | 92 | 1009.4 |
| 20260509001003 | 52 | 0 | 0.0 | 0.0 | 0.01 | 0.09 | 0.07 | 92 | 1009.4 |
| 20260509000003 | 52 | 0 | 0.0 | 0.0 | 0.02 | 0.09 | 0.07 | 92 | 1009.2 |
| 20260508235214 | 52 | 0 | 0.0 | 0.0 | 0.02 | 0.09 | 0.07 | 92 | 1009.1 |
| 20260508234213 | 52 | 0 | 0.0 | 0.0 | 0.02 | 0.09 | 0.07 | 91 | 1009.1 |
| 20260508233213 | 53 | 0 | 0.0 | 0.0 | 0.02 | 0.09 | 0.07 | 90 | 1009.2 |
| 20260508232213 | 54 | 0 | 0.0 | 0.0 | 0.01 | 0.08 | 0.06 | 88 | 1009.1 |
| 20260508231213 | 55 | 0 | 0.0 | 0.0 | 0.01 | 0.08 | 0.06 | 86 | 1009.1 |
| 20260508230213 | 56 | 0 | 0.0 | 0.0 | 0.00 | 0.07 | 0.05 | 82 | 1009.2 |
| 20260508225003 | 57 | 0 | 0.0 | 0.0 | 0.00 | 0.07 | 0.05 | 76 | 1009.0 |
| 20260508224213 | 57 | 0 | 0.0 | 0.0 | 0.00 | 0.07 | 0.05 | 74 | 1009.0 |
| 20260508223003 | 58 | 0 | 0.0 | 0.0 | 0.00 | 0.07 | 0.05 | 72 | 1008.7 |
| 20260508222003 | 58 | 0 | 0.0 | 0.0 | 0.00 | 0.07 | 0.05 | 71 | 1008.6 |
| 20260508221003 | 58 | 0 | 0.0 | 0.0 | 0.00 | 0.07 | 0.05 | 69 | 1008.6 |
| 20260508220003 | 59 | 0 | 0.0 | 0.0 | 0.00 | 0.07 | 0.05 | 70 | 1008.6 |
| 20260508215003 | 59 | 347 | 0.0 | 3.0 | 0.00 | 0.07 | 0.05 | 69 | 1008.7 |
| 20260508214003 | 58 | 355 | 1.0 | 3.0 | 0.00 | 0.07 | 0.05 | 68 | 1008.7 |
| 20260508213003 | 58 | 350 | 1.0 | 4.0 | 0.00 | 0.07 | 0.05 | 68 | 1008.9 |
| 20260508212003 | 59 | 23 | 0.0 | 3.0 | 0.00 | 0.07 | 0.05 | 67 | 1008.9 |
| 20260508211003 | 59 | 23 | 1.0 | 2.0 | 0.00 | 0.07 | 0.05 | 69 | 1008.9 |
| 20260508210003 | 59 | 21 | 2.0 | 5.0 | 0.00 | 0.07 | 0.05 | 64 | 1008.9 |
| 20260508205212 | 59 | 20 | 1.0 | 6.0 | 0.00 | 0.07 | 0.05 | 64 | 1009.0 |
| 20260508204003 | 59 | 33 | 1.0 | 4.0 | 0.00 | 0.07 | 0.05 | 61 | 1009.1 |
| 20260508203212 | 59 | 341 | 2.0 | 4.0 | 0.00 | 0.07 | 0.05 | 60 | 1009.0 |
| 20260508202212 | 60 | 353 | 2.0 | 8.0 | 0.00 | 0.07 | 0.05 | 58 | 1009.0 |